Time;durP1;ratioP1;P1;durP2;ratioP2;P2;SDS_P1;SDS_P2;PMS_P1;PMS_P2;Temp;Humidity;BMP_temperature;BMP_pressure;BME280_temperature;BME280_humidity;BME280_pressure;Samples;Min_cycle;Max_cycle;Signal;HPM_P1;HPM_P2
2022/03/18 00:03:55;;;;;;;44.35;28.05;;;;;;;10.71;64.99;97030.97;10283109;28;98828;-86
2022/03/18 00:09:01;;;;;;;42.80;27.42;;;;;;;10.65;64.93;97025.41;10281643;28;97845;-86
2022/03/18 00:14:03;;;;;;;42.63;27.48;;;;;;;10.63;65.02;97035.19;10270674;28;97961;-86
2022/03/18 00:19:06;;;;;;;42.30;26.42;;;;;;;10.66;64.81;97040.97;10276076;28;99297;-86
2022/03/18 00:24:11;;;;;;;43.08;27.40;;;;;;;10.55;64.79;97034.03;10275464;28;97130;-86
2022/03/18 00:29:13;;;;;;;39.57;26.43;;;;;;;10.53;64.93;97043.78;10288291;28;98000;-86
2022/03/18 00:34:16;;;;;;;38.60;26.08;;;;;;;10.50;65.01;97046.66;10281874;28;96956;-85
2022/03/18 00:39:21;;;;;;;41.78;26.05;;;;;;;10.49;64.68;97039.75;10290743;28;96886;-85
2022/03/18 00:44:25;;;;;;;42.83;27.23;;;;;;;10.36;65.58;97050.41;10277291;28;96936;-85
2022/03/18 00:54:49;;;;;;;44.88;27.65;;;;;;;10.21;65.68;97057.72;10269407;28;97277;-86
2022/03/18 00:59:52;;;;;;;43.37;28.17;;;;;;;10.20;65.67;97053.47;10277677;28;97387;-86
2022/03/18 01:04:55;;;;;;;48.55;28.90;;;;;;;10.15;65.91;97060.84;10285212;28;97076;-86
2022/03/18 01:10:00;;;;;;;48.15;31.58;;;;;;;10.00;66.03;97043.81;10272814;28;97353;-85
2022/03/18 01:15:04;;;;;;;50.85;31.55;;;;;;;9.92;66.60;97056.63;10289656;28;97414;-85
2022/03/18 01:20:08;;;;;;;49.53;30.98;;;;;;;9.85;66.83;97054.53;10277992;28;96919;-85
2022/03/18 01:25:12;;;;;;;51.50;31.20;;;;;;;9.69;67.11;97048.88;10269849;28;96871;-85
2022/03/18 01:30:15;;;;;;;52.73;32.37;;;;;;;9.71;66.62;97046.97;10287705;28;98459;-86
2022/03/18 01:35:18;;;;;;;52.47;31.80;;;;;;;9.64;66.78;97038.78;10284565;28;97026;-85
2022/03/18 01:40:22;;;;;;;50.08;31.10;;;;;;;9.56;66.98;97042.97;10269070;28;98364;-86
2022/03/18 01:45:25;;;;;;;51.40;31.07;;;;;;;9.65;66.78;97061.31;10285096;28;98464;-86
2022/03/18 01:50:28;;;;;;;51.00;32.72;;;;;;;9.55;66.66;97052.56;10271452;28;96790;-85
2022/03/18 01:55:32;;;;;;;56.72;32.80;;;;;;;9.59;66.73;97059.22;10284927;28;97469;-85
2022/03/18 02:00:35;;;;;;;53.50;33.40;;;;;;;9.60;66.49;97052.22;10276090;28;98534;-85
2022/03/18 02:05:40;;;;;;;53.90;31.88;;;;;;;9.42;67.15;97057.94;10278365;28;97118;-85
2022/03/18 02:10:45;;;;;;;55.60;31.50;;;;;;;9.46;66.95;97054.13;10285723;28;100027;-85
2022/03/18 02:15:49;;;;;;;51.03;31.90;;;;;;;9.40;66.73;97057.19;10279628;28;96906;-85
2022/03/18 02:20:52;;;;;;;53.08;31.83;;;;;;;9.40;67.01;97059.81;10284220;28;97392;-85
2022/03/18 02:25:57;;;;;;;54.63;31.85;;;;;;;9.42;66.35;97073.59;10278879;28;96893;-85
2022/03/18 02:31:00;;;;;;;52.08;30.70;;;;;;;9.24;66.69;97069.75;10284166;28;96962;-85
2022/03/18 02:36:03;;;;;;;55.97;32.13;;;;;;;9.24;66.68;97064.53;10287030;28;96931;-86
2022/03/18 02:41:08;;;;;;;51.72;32.97;;;;;;;9.11;67.01;97065.50;10276099;28;97199;-85
2022/03/18 02:46:11;;;;;;;56.80;31.77;;;;;;;9.05;67.33;97063.34;10262955;28;97077;-85
2022/03/18 02:51:14;;;;;;;51.33;31.42;;;;;;;9.04;67.26;97060.88;10279490;28;96836;-85
2022/03/18 02:56:18;;;;;;;50.28;31.27;;;;;;;9.07;67.07;97069.28;10276582;28;96890;-85
2022/03/18 03:01:21;;;;;;;51.93;32.10;;;;;;;9.00;66.83;97065.50;10276364;28;97337;-85
2022/03/18 03:11:46;;;;;;;54.28;31.70;;;;;;;8.97;66.73;97070.09;10276420;28;96942;-85
2022/03/18 03:16:49;;;;;;;51.37;32.03;;;;;;;8.89;67.22;97081.13;10279853;28;96900;-85
2022/03/18 03:21:52;;;;;;;53.97;32.58;;;;;;;8.81;66.46;97089.53;10258958;28;97421;-85
2022/03/18 03:26:57;;;;;;;53.72;32.05;;;;;;;8.87;66.77;97098.66;10272817;28;97888;-85
2022/03/18 03:32:00;;;;;;;54.83;32.65;;;;;;;8.87;67.08;97096.03;10278117;28;98108;-85
2022/03/18 03:37:03;;;;;;;53.97;32.38;;;;;;;8.80;66.55;97094.84;10280005;28;96969;-85
2022/03/18 03:42:07;;;;;;;52.10;31.40;;;;;;;8.69;66.81;97093.03;10273628;28;97274;-85
2022/03/18 03:47:10;;;;;;;56.30;33.93;;;;;;;8.66;66.72;97106.31;10287605;28;96847;-85
2022/03/18 03:52:13;;;;;;;56.35;32.08;;;;;;;8.65;66.84;97105.44;10284822;28;96789;-85
2022/03/18 03:57:18;;;;;;;53.00;31.40;;;;;;;8.59;67.05;97111.13;10276018;28;97152;-85
2022/03/18 04:02:21;;;;;;;52.87;32.87;;;;;;;8.75;66.37;97117.81;10284490;28;97829;-85
2022/03/18 04:07:25;;;;;;;53.15;31.98;;;;;;;8.81;66.36;97106.91;10285616;28;96948;-85
2022/03/18 04:12:29;;;;;;;54.00;32.60;;;;;;;8.78;66.30;97126.22;10279455;28;96848;-85
2022/03/18 04:17:39;;;;;;;51.83;32.17;;;;;;;8.68;67.02;97139.09;10283476;28;96919;-85
2022/03/18 04:22:43;;;;;;;48.35;29.83;;;;;;;8.50;66.98;97135.25;10282083;28;96917;-85
2022/03/18 04:27:47;;;;;;;50.47;29.67;;;;;;;8.45;67.63;97134.78;10274921;28;97018;-85
2022/03/18 04:32:50;;;;;;;48.60;30.63;;;;;;;8.54;67.04;97134.91;10271533;28;100208;-85
2022/03/18 04:37:54;;;;;;;50.42;30.02;;;;;;;8.57;66.97;97133.88;10289479;28;97395;-85
2022/03/18 04:42:58;;;;;;;47.70;30.00;;;;;;;8.45;67.08;97145.19;10271584;28;97261;-85
2022/03/18 04:48:01;;;;;;;50.53;29.03;;;;;;;8.43;67.05;97140.09;10277858;28;97302;-85
2022/03/18 04:53:04;;;;;;;48.90;29.98;;;;;;;8.43;67.36;97141.84;10271626;28;96993;-85
2022/03/18 04:58:08;;;;;;;48.92;30.02;;;;;;;8.37;67.08;97137.91;10287281;28;97082;-85
2022/03/18 05:03:11;;;;;;;47.53;30.37;;;;;;;8.32;67.10;97140.84;10286336;28;96899;-85
2022/03/18 05:08:15;;;;;;;47.97;29.80;;;;;;;8.31;67.22;97149.63;10283894;28;97249;-85
2022/03/18 05:13:19;;;;;;;52.83;30.63;;;;;;;8.26;67.83;97141.31;10286059;28;98483;-85
2022/03/18 05:18:22;;;;;;;46.15;30.30;;;;;;;8.22;67.67;97145.09;10280703;28;97145;-86
2022/03/18 05:23:25;;;;;;;45.92;28.95;;;;;;;8.35;67.10;97145.00;10285809;28;97848;-85
2022/03/18 05:28:30;;;;;;;48.03;29.13;;;;;;;8.20;67.76;97146.13;10267669;28;96824;-86
2022/03/18 05:33:35;;;;;;;46.95;28.23;;;;;;;8.25;67.68;97147.44;10282778;28;97220;-86
2022/03/18 05:38:38;;;;;;;49.05;29.08;;;;;;;8.22;67.27;97149.44;10282426;28;96881;-86
2022/03/18 05:43:43;;;;;;;49.72;29.63;;;;;;;8.17;67.96;97149.78;10289525;28;97025;-85
2022/03/18 05:48:46;;;;;;;;;;;;;;;8.18;67.65;97151.44;10283960;28;97506;-85
2022/03/18 05:53:49;;;;;;;49.42;28.45;;;;;;;8.14;67.88;97147.41;10276867;28;98896;-85
2022/03/18 05:58:54;;;;;;;51.13;29.05;;;;;;;8.14;68.16;97147.41;10277417;28;99142;-85
2022/03/18 06:03:56;;;;;;;47.08;29.50;;;;;;;8.06;68.21;97154.91;10277185;28;97092;-85
2022/03/18 06:14:23;;;;;;;52.28;30.98;;;;;;;8.15;68.09;97157.69;10287054;28;96879;-85
2022/03/18 06:19:27;;;;;;;49.67;30.00;;;;;;;8.08;68.43;97153.03;10272465;28;97228;-85
2022/03/18 06:24:30;;;;;;;54.13;30.50;;;;;;;8.11;68.40;97163.22;10282078;28;98218;-85
2022/03/18 06:29:35;;;;;;;53.38;30.95;;;;;;;7.98;68.92;97158.06;10275894;28;97389;-85
2022/03/18 06:34:39;;;;;;;50.55;30.48;;;;;;;8.05;68.65;97172.31;10269104;28;97019;-85
2022/03/18 06:39:42;;;;;;;49.60;30.42;;;;;;;8.00;68.89;97165.78;10270434;28;97088;-85
2022/03/18 06:44:46;;;;;;;48.97;30.65;;;;;;;8.14;68.63;97165.63;10270251;28;97186;-85
2022/03/18 06:49:49;;;;;;;47.50;31.05;;;;;;;8.14;68.18;97165.63;10280722;28;97088;-85
2022/03/18 06:54:53;;;;;;;49.03;29.88;;;;;;;8.21;68.02;97173.81;10277751;28;98335;-85
2022/03/18 06:59:57;;;;;;;48.30;29.50;;;;;;;8.08;68.29;97174.69;10281739;28;98355;-85
2022/03/18 07:05:00;;;;;;;47.90;30.27;;;;;;;8.15;68.19;97180.28;10278412;28;98553;-85
2022/03/18 07:10:03;;;;;;;49.42;30.63;;;;;;;8.18;68.37;97180.06;10284270;28;96976;-86
2022/03/18 07:15:08;;;;;;;52.20;31.42;;;;;;;8.24;67.94;97184.00;10270846;28;97038;-85
2022/03/18 07:20:12;;;;;;;;;;;;;;;8.21;67.73;97179.84;10277779;28;98966;-85
2022/03/18 07:25:15;;;;;;;48.42;31.48;;;;;;;8.22;67.75;97197.16;10269778;28;98851;-85
2022/03/18 07:30:19;;;;;;;52.58;30.92;;;;;;;8.09;68.48;97202.38;10285313;28;96921;-85
2022/03/18 07:35:23;;;;;;;47.80;30.87;;;;;;;8.14;68.32;97209.88;10278024;28;97005;-83
2022/03/18 07:40:26;;;;;;;49.42;31.88;;;;;;;8.27;67.35;97213.22;10274820;28;97005;-85
2022/03/18 07:45:32;;;;;;;50.50;31.15;;;;;;;8.32;67.89;97202.50;10291456;28;96925;-85
2022/03/18 07:50:39;;;;;;;52.60;30.45;;;;;;;8.34;67.95;97219.69;10292480;28;97005;-85
2022/03/18 07:55:42;;;;;;;45.63;28.90;;;;;;;8.32;67.76;97216.34;10291602;28;97020;-85
2022/03/18 08:00:46;;;;;;;47.35;29.73;;;;;;;8.31;67.71;97219.91;10262188;28;96970;-85
2022/03/18 08:05:50;;;;;;;47.75;30.48;;;;;;;8.32;67.27;97223.31;10284328;28;96682;-85
2022/03/18 08:10:53;;;;;;;45.65;28.55;;;;;;;8.34;67.29;97216.25;10288381;28;98508;-85
2022/03/18 08:15:57;;;;;;;40.00;27.23;;;;;;;8.37;67.35;97231.66;10275659;28;97013;-85
2022/03/18 08:21:00;;;;;;;43.88;26.88;;;;;;;8.34;67.38;97227.50;10270966;28;97083;-83
2022/03/18 08:26:03;;;;;;;41.65;26.90;;;;;;;8.40;66.78;97221.03;10281583;28;96933;-85
2022/03/18 08:31:08;;;;;;;44.75;26.20;;;;;;;8.46;66.92;97233.59;10260152;28;97217;-85
2022/03/18 08:36:11;;;;;;;41.67;25.92;;;;;;;8.41;66.58;97229.66;10268041;28;96800;-85
2022/03/18 08:41:14;;;;;;;39.03;24.15;;;;;;;8.49;67.29;97232.53;10280012;28;98973;-85
2022/03/18 08:46:19;;;;;;;35.97;23.20;;;;;;;8.63;65.93;97244.56;10275196;28;97093;-85
2022/03/18 08:51:22;;;;;;;35.00;23.70;;;;;;;8.67;66.17;97239.03;10261841;28;96934;-85
2022/03/18 08:56:25;;;;;;;32.28;22.75;;;;;;;8.74;65.76;97234.19;10278787;28;97157;-85
2022/03/18 09:01:29;;;;;;;36.88;24.73;;;;;;;8.74;65.55;97234.19;10277204;28;96796;-85
2022/03/18 09:06:32;;;;;;;38.17;25.23;;;;;;;8.69;65.41;97250.19;10292102;28;97259;-85
2022/03/18 09:11:35;;;;;;;36.88;25.75;;;;;;;8.68;64.73;97252.88;10289056;28;97309;-85
2022/03/18 09:16:39;;;;;;;38.15;24.98;;;;;;;8.69;65.02;97250.19;10273006;28;98988;-85
2022/03/18 09:21:42;;;;;;;36.80;24.53;;;;;;;8.73;64.97;97254.22;10282117;28;98456;-85
2022/03/18 09:26:45;;;;;;;42.83;26.15;;;;;;;8.85;64.30;97249.06;10278111;28;97636;-85
2022/03/18 09:31:50;;;;;;;41.22;26.15;;;;;;;8.96;64.41;97254.31;10264109;28;96850;-85
2022/03/18 09:36:53;;;;;;;40.33;26.47;;;;;;;9.18;63.91;97250.13;10260742;28;96980;-85
2022/03/18 09:41:57;;;;;;;39.00;25.48;;;;;;;9.26;63.38;97251.22;10286707;28;96801;-85
2022/03/18 09:47:03;;;;;;;38.22;24.85;;;;;;;9.14;63.55;97256.50;10273798;28;97271;-85
2022/03/18 09:52:07;;;;;;;37.45;25.10;;;;;;;9.20;63.75;97256.06;10259705;28;96973;-85
2022/03/18 09:57:11;;;;;;;35.03;24.63;;;;;;;9.30;63.70;97257.03;10274017;28;97213;-85
2022/03/18 10:02:27;;;;;;;39.47;24.23;;;;;;;9.20;63.29;97256.88;10274677;28;96749;-85
2022/03/18 10:07:31;;;;;;;36.53;24.92;;;;;;;9.22;63.47;97261.97;10275769;28;96734;-85
2022/03/18 10:12:35;;;;;;;38.17;25.90;;;;;;;9.18;63.67;97263.16;10286849;28;96806;-85
2022/03/18 10:17:41;;;;;;;36.40;25.52;;;;;;;9.25;63.41;97269.59;10269437;28;96952;-85
2022/03/18 10:22:44;;;;;;;38.28;26.17;;;;;;;9.24;63.72;97278.34;10261958;28;96923;-85
2022/03/18 10:27:49;;;;;;;34.97;25.00;;;;;;;9.17;63.58;97280.56;10256339;28;96794;-85
2022/03/18 10:32:54;;;;;;;37.33;25.58;;;;;;;9.22;63.28;97280.22;10262858;28;97206;-85
2022/03/18 10:37:56;;;;;;;42.65;25.80;;;;;;;9.02;63.97;97277.31;10272625;28;97232;-85
2022/03/18 10:43:01;;;;;;;36.92;23.80;;;;;;;8.89;63.93;97272.16;10288726;28;97209;-85
2022/03/18 10:48:13;;;;;;;34.83;24.60;;;;;;;8.98;63.34;97275.88;10265808;28;96910;-85
2022/03/18 10:53:19;;;;;;;37.05;25.30;;;;;;;8.95;63.97;97283.09;10280652;28;98526;-85
2022/03/18 10:58:23;;;;;;;35.72;25.08;;;;;;;8.98;63.67;97288.91;10279997;28;98302;-85
2022/03/18 11:03:27;;;;;;;34.50;24.63;;;;;;;9.07;62.99;97283.03;10296232;28;97259;-85
2022/03/18 11:08:36;;;;;;;36.53;25.50;;;;;;;9.17;62.88;97282.34;10291035;28;97339;-85
2022/03/18 11:13:51;;;;;;;34.10;23.95;;;;;;;9.19;63.32;97276.06;10282825;28;97482;-85
2022/03/18 11:18:56;;;;;;;36.07;23.50;;;;;;;9.37;62.92;97284.31;10286069;28;97014;-85
2022/03/18 11:23:59;;;;;;;38.00;26.70;;;;;;;9.40;62.33;97271.03;10273255;28;96896;-85
2022/03/18 11:29:09;;;;;;;38.50;25.73;;;;;;;9.34;62.38;97278.50;10282997;28;96911;-85
2022/03/18 11:34:18;;;;;;;37.20;25.90;;;;;;;9.25;62.46;97282.63;10274814;28;96823;-86
2022/03/18 11:39:22;;;;;;;38.22;26.20;;;;;;;9.27;63.04;97283.34;10294706;28;96881;-85
2022/03/18 11:44:42;;;;;;;39.15;26.88;;;;;;;9.42;62.66;97269.19;10288972;28;97006;-85
2022/03/18 11:49:47;;;;;;;41.72;27.83;;;;;;;9.38;62.60;97280.75;10297573;28;99985;-85
2022/03/18 11:54:51;;;;;;;44.67;27.70;;;;;;;9.34;62.48;97262.84;10309323;28;96837;-85
2022/03/18 11:59:55;;;;;;;43.15;28.15;;;;;;;9.16;62.34;97273.69;10277987;28;97687;-85
2022/03/18 12:04:59;;;;;;;42.53;28.00;;;;;;;9.18;62.62;97278.81;10292601;28;96872;-85
2022/03/18 12:10:04;;;;;;;42.33;28.30;;;;;;;9.23;62.56;97271.47;10272178;28;96945;-85
2022/03/18 12:15:09;;;;;;;42.75;28.60;;;;;;;9.27;62.35;97263.28;10289326;28;97789;-85
2022/03/18 12:20:18;;;;;;;42.63;29.63;;;;;;;9.14;62.51;97264.31;10293184;28;97867;-85
2022/03/18 12:25:22;;;;;;;41.53;30.33;;;;;;;9.17;62.16;97256.28;10264201;28;98133;-85
2022/03/18 12:30:27;;;;;;;44.58;30.67;;;;;;;9.14;61.90;97256.50;10282328;28;97735;-85
2022/03/18 12:35:33;;;;;;;41.60;29.65;;;;;;;9.32;62.10;97259.53;10271524;28;96805;-85
2022/03/18 12:40:38;;;;;;;44.85;29.98;;;;;;;9.35;62.08;97257.53;10275067;28;97086;-86
2022/03/18 12:45:43;;;;;;;42.97;29.83;;;;;;;9.37;62.33;97263.44;10279417;28;97207;-85
2022/03/18 12:50:48;;;;;;;40.88;29.80;;;;;;;9.54;61.96;97250.94;10270231;28;97257;-85
2022/03/18 12:55:53;;;;;;;43.85;30.70;;;;;;;9.59;61.97;97246.19;10289409;28;96924;-85
2022/03/18 13:00:59;;;;;;;44.47;31.42;;;;;;;9.41;61.54;97237.97;10290015;28;97937;-85
2022/03/18 13:06:07;;;;;;;45.85;31.33;;;;;;;9.34;61.68;97248.03;10269071;28;97090;-85
2022/03/18 13:11:10;;;;;;;42.53;31.38;;;;;;;9.37;61.92;97232.16;10266842;28;97927;-85
2022/03/18 13:16:13;;;;;;;45.92;31.35;;;;;;;9.30;61.48;97252.63;10270798;28;98681;-86
2022/03/18 13:21:19;;;;;;;43.70;31.65;;;;;;;9.21;61.76;97227.28;10278462;28;98095;-85
2022/03/18 13:26:23;;;;;;;48.75;31.65;;;;;;;9.40;61.42;97242.38;10267817;28;96930;-85
2022/03/18 13:36:49;;;;;;;45.30;32.33;;;;;;;9.57;60.84;97235.06;10272096;28;97101;-85
2022/03/18 13:41:55;;;;;;;47.58;31.15;;;;;;;9.48;60.71;97234.78;10265647;28;97128;-85
2022/03/18 13:47:00;;;;;;;44.15;32.10;;;;;;;9.44;60.91;97224.72;10272339;28;96960;-85
2022/03/18 13:52:06;;;;;;;47.00;31.88;;;;;;;9.41;61.47;97228.34;10259951;28;96917;-85
2022/03/18 13:57:09;;;;;;;46.20;31.20;;;;;;;9.47;61.06;97220.13;10287560;28;96898;-85
2022/03/18 14:02:12;;;;;;;47.33;31.40;;;;;;;9.56;60.52;97209.91;10272975;28;97160;-85
2022/03/18 14:07:17;;;;;;;50.17;33.50;;;;;;;9.55;60.97;97216.91;10273660;28;96797;-85
2022/03/18 14:12:21;;;;;;;45.92;31.75;;;;;;;9.62;60.66;97199.84;10265226;28;100166;-85
2022/03/18 14:17:24;;;;;;;46.22;32.88;;;;;;;9.71;60.65;97206.13;10284122;28;97106;-85
2022/03/18 14:22:30;;;;;;;48.60;33.78;;;;;;;9.83;60.84;97206.94;10289081;28;97003;-85
2022/03/18 14:27:33;;;;;;;50.22;33.28;;;;;;;9.82;60.43;97206.13;10286647;28;96830;-85
2022/03/18 14:32:37;;;;;;;48.65;33.33;;;;;;;9.77;60.72;97203.03;10281279;28;96911;-85
2022/03/18 14:37:41;;;;;;;47.28;32.47;;;;;;;9.69;60.87;97194.97;10271519;28;97363;-86
2022/03/18 14:42:45;;;;;;;46.00;30.98;;;;;;;9.62;60.77;97201.63;10263094;28;97370;-85
2022/03/18 14:47:50;;;;;;;48.35;33.28;;;;;;;9.62;60.68;97205.06;10267952;28;96895;-86
2022/03/18 14:52:56;;;;;;;44.67;29.77;;;;;;;9.58;60.56;97208.03;10262090;28;96798;-85
2022/03/18 14:58:01;;;;;;;46.58;31.20;;;;;;;9.69;61.17;97205.41;10275558;28;96862;-85
2022/03/18 15:03:05;;;;;;;50.88;32.40;;;;;;;9.62;61.08;97207.66;10286850;28;96937;-86
2022/03/18 15:08:09;;;;;;;46.35;30.27;;;;;;;9.59;60.81;97204.47;10291422;28;96893;-85
2022/03/18 15:13:15;;;;;;;43.53;29.90;;;;;;;9.54;60.86;97211.81;10275419;28;97152;-85
2022/03/18 15:18:20;;;;;;;44.67;29.45;;;;;;;9.34;61.54;97214.13;10259629;28;97090;-85
2022/03/18 15:23:24;;;;;;;47.70;31.33;;;;;;;9.37;61.54;97216.50;10262880;28;97007;-85
2022/03/18 15:28:27;;;;;;;;;;;;;;;9.33;61.08;97209.84;10264839;28;98525;-85
2022/03/18 15:33:32;;;;;;;46.97;30.23;;;;;;;9.28;61.34;97212.81;10286827;28;96922;-85
2022/03/18 15:38:36;;;;;;;45.50;29.50;;;;;;;9.17;61.12;97209.34;10285792;28;96835;-85
2022/03/18 15:43:40;;;;;;;;;;;;;;;9.18;61.54;97216.25;10297480;28;97114;-85
2022/03/18 15:48:43;;;;;;;48.65;29.13;;;;;;;9.17;61.53;97219.78;10266230;28;97153;-85
2022/03/18 15:53:49;;;;;;;45.35;28.70;;;;;;;9.18;61.61;97217.06;10284746;28;99587;-85
2022/03/18 15:58:52;;;;;;;42.97;29.90;;;;;;;9.16;61.25;97202.47;10271384;28;98763;-85
2022/03/18 16:03:56;;;;;;;42.22;27.85;;;;;;;9.13;61.49;97203.53;10292152;28;98808;-85
2022/03/18 16:09:00;;;;;;;46.28;29.00;;;;;;;9.18;60.77;97195.38;10295508;28;98107;-85
2022/03/18 16:14:05;;;;;;;44.17;28.77;;;;;;;9.14;60.67;97204.34;10290065;28;97122;-85
2022/03/18 16:19:08;;;;;;;44.70;29.02;;;;;;;9.18;61.07;97200.59;10261532;28;96820;-85
2022/03/18 16:24:13;;;;;;;46.30;29.25;;;;;;;9.21;61.17;97200.34;10274688;28;97154;-85
2022/03/18 16:29:16;;;;;;;53.78;29.77;;;;;;;9.16;60.80;97192.88;10283625;28;97407;-85
2022/03/18 16:34:20;;;;;;;43.13;27.85;;;;;;;9.22;60.67;97209.84;10275635;28;97684;-85
2022/03/18 16:39:24;;;;;;;44.88;27.20;;;;;;;9.13;60.36;97210.53;10271545;28;99125;-85
2022/03/18 16:44:27;;;;;;;42.07;27.53;;;;;;;9.04;60.91;97199.84;10279092;28;97459;-85
2022/03/18 16:49:31;;;;;;;51.22;27.63;;;;;;;9.10;60.71;97212.41;10289027;28;96928;-85
2022/03/18 16:54:38;;;;;;;45.15;29.77;;;;;;;9.17;60.45;97217.16;10276615;28;96993;-85
2022/03/18 16:59:42;;;;;;;43.38;28.52;;;;;;;9.16;60.38;97213.75;10283290;28;97126;-85
2022/03/18 17:04:45;;;;;;;43.97;28.70;;;;;;;9.19;60.57;97212.66;10285989;28;97062;-85
2022/03/18 17:09:50;;;;;;;46.53;30.45;;;;;;;9.17;60.04;97219.78;10285151;28;96849;-85
2022/03/18 17:14:53;;;;;;;44.83;28.67;;;;;;;9.16;60.51;97228.53;10285616;28;97139;-85
2022/03/18 17:19:57;;;;;;;44.25;29.63;;;;;;;9.10;60.04;97222.81;10286233;28;97382;-84
2022/03/18 17:25:02;;;;;;;43.92;29.52;;;;;;;9.11;59.80;97223.69;10289093;28;97474;-84
2022/03/18 17:30:06;;;;;;;44.85;30.05;;;;;;;9.09;60.03;97234.22;10284849;28;97129;-85
2022/03/18 17:35:09;;;;;;;47.13;30.17;;;;;;;9.20;60.49;97243.84;10278865;28;96864;-85
2022/03/18 17:40:14;;;;;;;49.03;30.40;;;;;;;9.09;60.07;97249.88;10285692;28;96784;-86
2022/03/18 17:45:17;;;;;;;47.53;29.70;;;;;;;9.10;60.14;97256.72;10288639;28;97946;-86
2022/03/18 17:50:20;;;;;;;49.20;30.55;;;;;;;9.13;60.22;97260.06;10280318;28;96869;-85
2022/03/18 17:55:24;;;;;;;63.15;43.17;;;;;;;9.21;60.68;97260.31;10292147;28;97255;-86
2022/03/18 18:00:27;;;;;;;44.80;30.80;;;;;;;9.26;60.37;97260.78;10286508;28;97261;-85
2022/03/18 18:05:30;;;;;;;45.13;32.58;;;;;;;9.20;60.64;97250.84;10281769;28;97012;-83
2022/03/18 18:10:34;;;;;;;46.00;30.55;;;;;;;9.14;60.38;97266.91;10274853;28;97086;-85
2022/03/18 18:15:38;;;;;;;48.35;31.90;;;;;;;9.23;60.32;97276.69;10268976;28;98646;-86
2022/03/18 18:26:03;;;;;;;47.25;31.17;;;;;;;9.19;60.76;97280.44;10270311;28;97704;-85
2022/03/18 18:31:06;;;;;;;44.50;30.90;;;;;;;9.23;60.29;97276.69;10278514;28;100051;-85
2022/03/18 18:36:09;;;;;;;51.05;33.42;;;;;;;9.18;60.66;97284.03;10278829;28;97866;-85
2022/03/18 18:41:14;;;;;;;51.72;34.83;;;;;;;9.20;60.61;97292.56;10272552;28;97229;-85
2022/03/18 18:46:17;;;;;;;49.30;31.70;;;;;;;9.23;60.62;97292.34;10275057;28;98275;-85
2022/03/18 18:51:20;;;;;;;48.00;32.15;;;;;;;9.17;60.83;97291.00;10279031;28;96864;-85
2022/03/18 18:56:25;;;;;;;48.10;33.22;;;;;;;9.11;61.28;97291.47;10287690;28;96897;-85
2022/03/18 19:01:28;;;;;;;47.50;32.27;;;;;;;9.13;61.32;97296.56;10276060;28;96865;-85
2022/03/18 19:06:31;;;;;;;46.13;32.05;;;;;;;9.17;60.60;97298.00;10291192;28;96996;-85
2022/03/18 19:11:37;;;;;;;48.30;32.40;;;;;;;8.97;61.19;97292.47;10267157;28;96868;-85
2022/03/18 19:16:41;;;;;;;47.47;33.03;;;;;;;9.06;61.15;97302.22;10290194;28;98632;-85
2022/03/18 19:21:44;;;;;;;46.15;32.08;;;;;;;9.10;61.11;97303.63;10280154;28;97208;-86
2022/03/18 19:26:48;;;;;;;44.83;32.03;;;;;;;9.12;60.91;97306.13;10271252;28;100344;-85
2022/03/18 19:37:12;;;;;;;41.05;29.38;;;;;;;9.09;60.70;97311.59;10294599;28;96823;-85
2022/03/18 19:42:16;;;;;;;43.40;31.60;;;;;;;9.10;60.56;97313.25;10278149;28;97274;-85
2022/03/18 19:47:20;;;;;;;40.83;30.83;;;;;;;9.13;60.29;97314.81;10278141;28;100251;-85
2022/03/18 19:52:23;;;;;;;44.63;31.98;;;;;;;9.16;60.59;97317.16;10263071;28;96943;-85
2022/03/18 20:02:48;;;;;;;43.60;30.58;;;;;;;9.14;59.77;97313.84;10270117;28;96937;-85
2022/03/18 20:07:52;;;;;;;39.03;28.70;;;;;;;9.14;60.15;97313.84;10264566;28;97348;-85
2022/03/18 20:12:56;;;;;;;42.58;30.73;;;;;;;9.13;59.76;97326.06;10278266;28;96924;-85
2022/03/18 20:17:59;;;;;;;40.70;29.30;;;;;;;9.16;59.56;97325.00;10293089;28;97365;-85
2022/03/18 20:23:02;;;;;;;43.00;30.13;;;;;;;9.09;60.01;97330.66;10292564;28;98717;-85
2022/03/18 20:28:06;;;;;;;40.25;29.23;;;;;;;9.02;59.11;97333.81;10278121;28;97036;-85
2022/03/18 20:33:10;;;;;;;41.28;29.35;;;;;;;9.04;59.43;97324.97;10281609;28;96840;-85
2022/03/18 20:38:13;;;;;;;42.80;30.02;;;;;;;9.02;59.04;97326.84;10267920;28;96730;-85
2022/03/18 20:43:18;;;;;;;43.17;29.70;;;;;;;9.05;58.85;97331.81;10275885;28;97420;-85
2022/03/18 20:48:22;;;;;;;42.53;29.50;;;;;;;9.02;58.86;97339.03;10284449;28;98735;-85
2022/03/18 20:53:25;;;;;;;41.47;29.45;;;;;;;9.02;58.48;97347.69;10274261;28;96966;-85
2022/03/18 20:58:29;;;;;;;39.33;28.17;;;;;;;8.98;58.65;97346.25;10275308;28;97264;-85
2022/03/18 21:03:32;;;;;;;44.63;28.20;;;;;;;8.98;58.44;97342.81;10281420;28;96913;-85
2022/03/18 21:08:35;;;;;;;36.83;26.95;;;;;;;8.92;58.48;97333.66;10267120;28;96793;-85
2022/03/18 21:13:45;;;;;;;36.03;27.02;;;;;;;8.93;58.09;97343.13;10278927;28;98892;-85
2022/03/18 21:18:48;;;;;;;38.13;27.77;;;;;;;8.97;57.99;97344.59;10258964;28;97149;-85
2022/03/18 21:23:51;;;;;;;36.15;27.73;;;;;;;8.89;58.39;97339.09;10268904;28;98518;-85
2022/03/18 21:34:17;;;;;;;41.22;26.30;;;;;;;8.79;57.98;97340.69;10259225;28;96933;-85
2022/03/18 21:39:21;;;;;;;33.07;24.40;;;;;;;8.75;57.11;97347.91;10289853;28;96860;-85
2022/03/18 21:44:25;;;;;;;34.28;25.17;;;;;;;8.61;57.51;97343.66;10267413;28;97060;-85
2022/03/18 21:49:28;;;;;;;31.80;23.07;;;;;;;8.59;56.99;97345.53;10255914;28;96968;-85
2022/03/18 21:54:31;;;;;;;35.42;24.40;;;;;;;8.54;56.97;97339.81;10275870;28;97063;-85
2022/03/18 21:59:35;;;;;;;35.15;24.13;;;;;;;8.55;57.23;97357.09;10265455;28;97188;-85
2022/03/18 22:04:40;;;;;;;30.30;23.10;;;;;;;8.54;56.77;97356.28;10260898;28;96803;-85
2022/03/18 22:09:43;;;;;;;;;;;;;;;8.51;56.68;97353.06;10279804;28;96947;-85
2022/03/18 22:14:48;;;;;;;33.38;23.77;;;;;;;8.34;57.06;97352.47;10265491;28;96937;-85
2022/03/18 22:19:51;;;;;;;34.90;24.85;;;;;;;8.43;56.49;97356.22;10262265;28;97061;-85
2022/03/18 22:24:53;;;;;;;32.70;23.63;;;;;;;8.38;56.56;97352.25;10290190;28;96706;-85
2022/03/18 22:29:58;;;;;;;30.55;22.50;;;;;;;8.35;56.49;97353.31;10280781;28;96812;-85
2022/03/18 22:35:01;;;;;;;33.67;22.97;;;;;;;8.25;56.32;97354.88;10263278;28;96901;-85
2022/03/18 22:40:04;;;;;;;30.98;22.90;;;;;;;8.26;56.45;97359.97;10273269;28;96958;-85
2022/03/18 22:45:09;;;;;;;29.98;22.58;;;;;;;8.27;55.65;97360.81;10288362;28;97671;-85
2022/03/18 22:50:13;;;;;;;29.30;21.33;;;;;;;8.13;56.26;97364.34;10285906;28;97255;-85
2022/03/18 22:55:16;;;;;;;31.42;22.52;;;;;;;8.18;56.46;97362.25;10257336;28;96778;-85
2022/03/18 23:00:23;;;;;;;30.67;21.73;;;;;;;8.23;55.63;97367.16;10265328;28;96952;-85
2022/03/18 23:05:26;;;;;;;31.27;23.05;;;;;;;8.18;56.02;97367.47;10277613;28;97052;-85
2022/03/18 23:15:51;;;;;;;29.83;22.25;;;;;;;8.11;55.90;97376.63;10281666;28;96904;-85
2022/03/18 23:20:55;;;;;;;29.33;22.00;;;;;;;8.09;56.00;97381.13;10280741;28;97557;-85
2022/03/18 23:25:58;;;;;;;33.08;22.10;;;;;;;8.11;55.41;97381.84;10265503;28;97059;-85
2022/03/18 23:31:02;;;;;;;28.17;20.58;;;;;;;8.07;55.49;97383.81;10258858;28;97164;-85
2022/03/18 23:36:06;;;;;;;29.30;20.92;;;;;;;8.06;55.25;97395.16;10265363;28;97125;-85
2022/03/18 23:41:09;;;;;;;28.98;20.42;;;;;;;8.06;55.18;97386.53;10269390;28;99369;-85
2022/03/18 23:46:14;;;;;;;27.23;20.95;;;;;;;8.00;55.29;97392.16;10266128;28;96709;-85
2022/03/18 23:51:17;;;;;;;27.42;21.17;;;;;;;8.01;55.14;97406.81;10262499;28;97948;-85
2022/03/18 23:56:20;;;;;;;27.90;20.73;;;;;;;7.98;54.94;97403.50;10261172;28;97979;-85
